createdAt,value
2019-05-15T00:04:18.524Z,14.20
2019-05-15T00:09:22.621Z,14.50
2019-05-15T00:14:28.852Z,14.40
2019-05-15T00:19:32.748Z,14.40
2019-05-15T00:24:38.171Z,14.10
2019-05-15T00:29:42.460Z,14.10
2019-05-15T00:34:48.834Z,14.10
2019-05-15T00:39:53.519Z,14.10
2019-05-15T00:44:58.479Z,14.00
2019-05-15T00:50:02.539Z,14.10
2019-05-15T00:55:08.644Z,14.20
2019-05-15T01:00:13.226Z,13.80
2019-05-15T01:05:18.616Z,14.20
2019-05-15T01:10:22.776Z,14.00
2019-05-15T01:15:28.897Z,13.80
2019-05-15T01:20:33.134Z,14.00
2019-05-15T01:25:39.086Z,13.60
2019-05-15T01:30:43.238Z,13.80
2019-05-15T01:35:48.774Z,13.70
2019-05-15T01:40:53.366Z,13.70
2019-05-15T01:45:58.889Z,13.70
2019-05-15T01:51:03.648Z,13.60
2019-05-15T01:56:08.606Z,13.60
2019-05-15T02:01:13.002Z,13.70
2019-05-15T02:06:19.023Z,13.60
2019-05-15T02:11:22.734Z,13.50
2019-05-15T02:16:28.620Z,13.70
2019-05-15T02:21:33.292Z,13.50
2019-05-15T02:26:38.808Z,13.60
2019-05-15T02:31:43.655Z,13.30
2019-05-15T02:36:49.221Z,13.60
2019-05-15T02:41:53.423Z,13.40
2019-05-15T02:46:58.811Z,13.30
2019-05-15T02:52:03.052Z,13.30
2019-05-15T02:57:09.824Z,13.20
2019-05-15T03:02:13.111Z,13.30
2019-05-15T03:07:19.267Z,13.30
2019-05-15T03:12:29.057Z,13.30
2019-05-15T03:17:33.024Z,13.30
2019-05-15T03:22:40.164Z,13.30
2019-05-15T03:27:44.047Z,13.40
2019-05-15T03:32:55.828Z,13.20
2019-05-15T03:37:54.730Z,13.30
2019-05-15T03:42:59.609Z,13.10
2019-05-15T03:48:03.988Z,13.20
2019-05-15T03:53:10.105Z,13.20
2019-05-15T03:58:14.771Z,13.10
2019-05-15T04:03:20.258Z,13.00
2019-05-15T04:08:24.887Z,13.10
2019-05-15T04:13:30.130Z,12.90
2019-05-15T04:18:34.721Z,12.80
2019-05-15T04:23:39.675Z,12.70
2019-05-15T04:28:49.458Z,12.90
2019-05-15T04:33:53.172Z,12.70
2019-05-15T04:38:58.720Z,12.90
2019-05-15T04:44:03.189Z,12.80
2019-05-15T04:49:09.279Z,12.80
2019-05-15T04:54:13.870Z,12.90
2019-05-15T04:59:19.562Z,12.00
2019-05-15T05:04:24.058Z,12.50
2019-05-15T05:09:28.895Z,12.40
2019-05-15T05:14:33.147Z,12.70
2019-05-15T05:19:40.108Z,12.70
2019-05-15T05:24:43.670Z,12.70
2019-05-15T05:29:48.107Z,12.80
2019-05-15T05:34:52.986Z,12.90
2019-05-15T05:39:57.743Z,12.90
2019-05-15T05:45:01.816Z,12.70
2019-05-15T05:50:07.947Z,12.90
2019-05-15T05:55:12.319Z,12.80
2019-05-15T06:00:20.749Z,12.70
2019-05-15T06:05:24.996Z,13.00
2019-05-15T06:10:29.395Z,13.20
2019-05-15T06:15:33.553Z,13.10
2019-05-15T06:20:39.495Z,13.10
2019-05-15T06:25:44.087Z,13.20
2019-05-15T06:30:48.654Z,13.20
2019-05-15T06:35:53.247Z,13.30
2019-05-15T06:40:58.292Z,13.30
2019-05-15T06:46:02.532Z,13.30
2019-05-15T06:51:08.813Z,13.20
2019-05-15T06:56:13.280Z,13.40
2019-05-15T07:01:18.896Z,13.60
2019-05-15T07:06:23.499Z,13.40
2019-05-15T07:11:28.270Z,13.60
2019-05-15T07:16:32.815Z,13.60
2019-05-15T07:21:38.750Z,13.50
2019-05-15T07:26:43.426Z,13.40
2019-05-15T07:31:47.862Z,13.60
2019-05-15T07:36:52.098Z,13.80
2019-05-15T07:41:57.828Z,13.60
2019-05-15T07:47:02.148Z,13.90
2019-05-15T07:52:08.607Z,13.70
2019-05-15T07:57:12.565Z,14.10
2019-05-15T08:02:19.058Z,14.20
2019-05-15T08:07:23.302Z,14.10
2019-05-15T08:12:28.379Z,14.30
2019-05-15T08:17:32.867Z,14.20
2019-05-15T08:22:38.242Z,14.30
2019-05-15T08:27:42.875Z,14.40
2019-05-15T08:32:51.009Z,14.90
2019-05-15T08:37:52.754Z,14.70
2019-05-15T08:43:01.902Z,14.90
2019-05-15T08:48:03.187Z,15.20
2019-05-15T08:53:08.381Z,15.20
2019-05-15T08:58:14.098Z,15.20
2019-05-15T09:03:18.681Z,15.30
2019-05-15T09:08:23.218Z,15.40
2019-05-15T09:13:29.193Z,15.40
2019-05-15T09:18:33.260Z,15.50
2019-05-15T09:23:38.810Z,15.70
2019-05-15T09:28:43.229Z,15.60
2019-05-15T09:33:49.295Z,16.00
2019-05-15T09:38:54.454Z,15.80
2019-05-15T09:43:58.863Z,16.00
2019-05-15T09:49:03.308Z,16.10
2019-05-15T09:54:08.103Z,16.00
2019-05-15T09:59:12.354Z,16.20
2019-05-15T10:04:18.805Z,16.50
2019-05-15T10:09:22.643Z,16.60
2019-05-15T10:14:29.428Z,16.60
2019-05-15T10:19:33.002Z,16.70
2019-05-15T10:24:37.040Z,16.80
2019-05-15T10:29:41.729Z,16.90
2019-05-15T10:34:46.327Z,16.80
2019-05-15T10:39:52.748Z,16.90
2019-05-15T10:44:58.789Z,17.00
2019-05-15T10:50:02.540Z,17.20
2019-05-15T10:55:09.256Z,16.90
2019-05-15T11:00:15.416Z,17.10
2019-05-15T11:05:20.447Z,16.90
2019-05-15T11:10:24.576Z,17.00
2019-05-15T11:15:29.144Z,17.00
2019-05-15T11:20:33.343Z,17.30
2019-05-15T11:25:37.844Z,17.40
2019-05-15T11:30:42.043Z,17.10
2019-05-15T11:35:57.974Z,17.40
2019-05-15T11:40:52.531Z,17.70
2019-05-15T11:45:58.774Z,17.70
2019-05-15T11:51:09.208Z,17.40
2019-05-15T11:56:12.388Z,17.50
2019-05-15T12:01:19.786Z,17.70
2019-05-15T12:06:23.944Z,17.60
2019-05-15T12:11:36.251Z,17.50
2019-05-15T12:16:36.371Z,17.70
2019-05-15T12:21:40.347Z,18.00
2019-05-15T12:26:53.973Z,17.70
2019-05-15T12:31:58.988Z,17.90
2019-05-15T12:37:04.082Z,17.60
2019-05-15T13:02:38.751Z,17.90
2019-05-15T13:07:43.500Z,18.00
2019-05-15T13:12:57.243Z,18.00
2019-05-15T13:17:54.036Z,17.90
2019-05-15T13:22:59.357Z,17.80
2019-05-15T13:28:04.127Z,18.20
2019-05-15T13:33:12.408Z,17.90
2019-05-15T13:38:18.053Z,17.90
2019-05-15T13:43:22.559Z,18.30
2019-05-15T13:48:29.321Z,17.90
2019-05-15T13:53:32.899Z,18.00
2019-05-15T13:58:38.774Z,18.30
2019-05-15T14:03:43.126Z,18.40
2019-05-15T14:08:52.157Z,18.20
2019-05-15T14:13:59.295Z,18.20
2019-05-15T14:19:03.062Z,18.10
2019-05-15T14:24:09.002Z,18.10
2019-05-15T14:29:12.895Z,18.40
2019-05-15T14:34:18.641Z,18.20
2019-05-15T14:39:23.530Z,18.40
2019-05-15T14:44:27.615Z,18.10
2019-05-15T14:49:34.760Z,18.20
2019-05-15T14:54:38.480Z,18.10
2019-05-15T14:59:42.622Z,18.40
2019-05-15T15:04:48.550Z,18.30
2019-05-15T15:09:52.647Z,18.40
2019-05-15T15:14:57.799Z,18.20
2019-05-15T15:20:02.207Z,18.60
2019-05-15T15:25:09.571Z,18.60
2019-05-15T15:30:15.893Z,18.20
2019-05-15T15:35:19.275Z,18.60
2019-05-15T15:40:28.281Z,18.40
2019-05-15T15:45:32.836Z,18.60
2019-05-15T15:50:38.397Z,18.40
2019-05-15T15:55:42.628Z,18.40
2019-05-15T16:00:48.862Z,18.40
2019-05-15T16:05:52.668Z,18.70
2019-05-15T16:10:58.919Z,18.40
2019-05-15T16:16:02.746Z,18.50
2019-05-15T16:21:08.178Z,18.30
2019-05-15T16:26:12.848Z,18.80
2019-05-15T16:31:18.644Z,18.50
2019-05-15T16:36:22.943Z,18.50
2019-05-15T16:41:28.993Z,18.70
2019-05-15T16:46:33.502Z,18.70
2019-05-15T16:51:38.489Z,18.70
2019-05-15T16:56:42.750Z,18.50
2019-05-15T17:01:48.974Z,18.70
2019-05-15T17:06:52.778Z,18.70
2019-05-15T17:11:58.232Z,18.50
2019-05-15T17:17:02.497Z,18.60
2019-05-15T17:22:08.987Z,18.60
2019-05-15T17:27:12.580Z,18.80
2019-05-15T17:32:18.422Z,18.50
2019-05-15T17:37:22.627Z,18.70
2019-05-15T17:42:28.980Z,18.70
2019-05-15T17:47:33.898Z,18.40
2019-05-15T17:52:39.040Z,18.80
2019-05-15T17:57:43.278Z,18.40
2019-05-15T18:02:48.636Z,18.60
2019-05-15T18:07:53.079Z,18.40
2019-05-15T18:12:58.379Z,18.30
2019-05-15T18:18:02.924Z,18.50
2019-05-15T18:23:08.517Z,18.60
2019-05-15T18:28:13.188Z,18.20
2019-05-15T18:33:18.538Z,18.20
2019-05-15T18:38:23.391Z,18.40
2019-05-15T18:43:29.963Z,18.20
2019-05-15T18:48:34.420Z,18.10
2019-05-15T18:53:38.940Z,18.00
2019-05-15T18:58:44.164Z,18.00
2019-05-15T19:03:48.451Z,18.10
2019-05-15T19:08:53.249Z,18.00
2019-05-15T19:13:58.863Z,18.10
2019-05-15T19:19:03.711Z,17.80
2019-05-15T19:24:08.047Z,17.80
2019-05-15T19:29:12.421Z,17.90
2019-05-15T19:34:18.838Z,17.90
2019-05-15T19:39:23.003Z,17.60
2019-05-15T19:44:28.493Z,17.60
2019-05-15T19:49:32.811Z,17.80
2019-05-15T19:54:37.851Z,17.70
2019-05-15T19:59:42.370Z,17.80
2019-05-15T20:04:48.967Z,17.40
2019-05-15T20:09:52.589Z,17.60
2019-05-15T20:14:58.332Z,17.80
2019-05-15T20:20:02.822Z,17.50
2019-05-15T20:25:08.544Z,17.50
2019-05-15T20:30:13.524Z,17.30
2019-05-15T20:35:20.157Z,17.30
2019-05-15T20:40:24.519Z,17.20
2019-05-15T20:45:29.220Z,17.30
2019-05-15T20:50:33.428Z,16.90
2019-05-15T20:55:38.087Z,17.10
2019-05-15T21:00:42.927Z,17.10
2019-05-15T21:05:48.824Z,16.70
2019-05-15T21:10:53.991Z,17.00
2019-05-15T21:15:59.040Z,16.70
2019-05-15T21:21:03.587Z,16.50
2019-05-15T21:26:07.789Z,16.80
2019-05-15T21:31:13.760Z,16.70
2019-05-15T21:36:19.432Z,16.50
2019-05-15T21:41:23.686Z,16.50
2019-05-15T21:46:28.091Z,16.50
2019-05-15T21:51:32.450Z,16.40
2019-05-15T21:56:38.616Z,16.20
2019-05-15T22:01:42.735Z,16.50
2019-05-15T22:06:49.054Z,16.50
2019-05-15T22:11:52.687Z,16.00
2019-05-15T22:16:58.088Z,16.00
2019-05-15T22:22:02.744Z,16.50
2019-05-15T22:27:09.655Z,16.20
2019-05-15T22:32:13.768Z,16.20
2019-05-15T22:37:18.238Z,16.20
2019-05-15T22:42:23.608Z,16.20
2019-05-15T22:47:28.585Z,15.90
2019-05-15T22:52:32.642Z,15.70
2019-05-15T22:57:38.652Z,15.90
2019-05-15T23:02:42.972Z,16.00
2019-05-15T23:07:48.254Z,15.90
2019-05-15T23:12:53.173Z,15.60
2019-05-15T23:17:58.356Z,15.90
2019-05-15T23:23:02.547Z,15.80
2019-05-15T23:28:08.558Z,15.60
2019-05-15T23:33:12.370Z,15.80
2019-05-15T23:38:16.334Z,15.90
2019-05-15T23:43:20.760Z,15.90
2019-05-15T23:48:25.263Z,15.70
2019-05-15T23:53:29.568Z,15.60
2019-05-15T23:58:34.360Z,15.70
